createdAt,value
2019-03-20T00:01:44.726Z,98369.25
2019-03-20T00:10:36.102Z,98390.63
2019-03-20T00:13:09.996Z,98354.95
2019-03-20T00:15:43.970Z,98380.67
2019-03-20T00:18:17.642Z,98381.47
2019-03-20T00:20:51.394Z,98373.87
2019-03-20T00:23:25.266Z,98367.95
2019-03-20T00:25:58.949Z,98371.19
2019-03-20T00:28:33.194Z,98378.74
2019-03-20T00:31:06.819Z,98373.62
2019-03-20T00:33:40.445Z,98379.20
2019-03-20T00:36:14.337Z,98380.38
2019-03-20T00:38:47.904Z,98386.34
2019-03-20T00:41:23.089Z,98374.17
2019-03-20T00:43:58.568Z,98377.70
2019-03-20T00:46:33.923Z,98381.22
2019-03-20T00:55:18.737Z,98383.64
2019-03-20T00:57:52.550Z,98389.88
2019-03-20T01:00:28.265Z,98389.88
2019-03-20T01:03:02.100Z,98392.30
2019-03-20T01:05:35.880Z,98392.06
2019-03-20T01:08:10.108Z,98392.16
2019-03-20T01:10:43.883Z,98381.75
2019-03-20T01:13:17.426Z,98381.75
2019-03-20T01:16:35.572Z,98383.66
2019-03-20T01:18:54.580Z,98372.55
2019-03-20T01:21:28.461Z,98375.78
2019-03-20T01:24:02.067Z,98375.78
2019-03-20T01:26:35.707Z,98378.98
2019-03-20T01:29:09.520Z,98387.70
2019-03-20T01:31:43.302Z,98384.95
2019-03-20T01:34:17.100Z,98384.45
2019-03-20T01:36:51.293Z,98382.55
2019-03-20T01:42:38.279Z,98378.52
2019-03-20T01:45:13.747Z,98382.55
2019-03-20T01:47:49.439Z,98386.08
2019-03-20T01:50:23.255Z,98394.73
2019-03-20T01:53:00.991Z,98394.75
2019-03-20T01:55:35.227Z,98394.20
2019-03-20T01:58:08.736Z,98398.26
2019-03-20T02:00:43.528Z,98400.97
2019-03-20T02:03:17.926Z,98403.09
2019-03-20T02:05:52.339Z,98393.67
2019-03-20T02:12:35.319Z,98382.53
2019-03-20T02:15:14.363Z,98402.02
2019-03-20T02:17:51.154Z,98402.85
2019-03-20T02:20:25.044Z,98389.76
2019-03-20T02:22:58.776Z,98398.69
2019-03-20T02:25:32.541Z,98392.59
2019-03-20T02:28:06.265Z,98388.23
2019-03-20T02:30:42.219Z,98391.47
2019-03-20T02:33:17.397Z,98395.83
2019-03-20T02:35:52.297Z,98399.87
2019-03-20T02:38:27.476Z,98404.48
2019-03-20T02:41:02.044Z,98406.30
2019-03-20T02:43:35.723Z,98395.20
2019-03-20T02:46:09.569Z,98407.81
2019-03-20T02:48:43.368Z,98398.37
2019-03-20T02:51:18.417Z,98394.67
2019-03-20T02:53:52.248Z,98396.62
2019-03-20T02:56:45.779Z,98395.51
2019-03-20T02:59:22.090Z,98393.09
2019-03-20T03:01:56.506Z,98395.43
2019-03-20T03:04:30.369Z,98393.19
2019-03-20T03:07:04.592Z,98399.34
2019-03-20T03:09:38.719Z,98390.55
2019-03-20T03:12:12.721Z,98387.82
2019-03-20T03:14:46.465Z,98388.19
2019-03-20T03:17:20.417Z,98382.77
2019-03-20T03:19:53.922Z,98384.38
2019-03-20T03:22:27.537Z,98387.47
2019-03-20T03:25:01.365Z,98381.44
2019-03-20T03:27:35.195Z,98382.44
2019-03-20T03:30:19.605Z,98389.30
2019-03-20T03:32:54.963Z,98387.28
2019-03-20T03:35:28.682Z,98382.31
2019-03-20T03:38:02.562Z,98383.16
2019-03-20T03:40:37.682Z,98378.59
2019-03-20T03:43:14.137Z,98377.86
2019-03-20T03:46:24.575Z,98371.01
2019-03-20T03:48:58.740Z,98385.84
2019-03-20T03:51:33.934Z,98379.06
2019-03-20T03:54:14.119Z,98392.91
2019-03-20T03:56:49.465Z,98398.55
2019-03-20T03:59:27.447Z,98401.52
2019-03-20T04:02:04.024Z,98401.13
2019-03-20T04:04:40.176Z,98396.41
2019-03-20T04:07:14.811Z,98387.44
2019-03-20T04:09:51.195Z,98389.39
2019-03-20T04:12:25.576Z,98390.72
2019-03-20T04:15:01.751Z,98375.84
2019-03-20T04:17:38.032Z,98383.91
2019-03-20T04:20:15.234Z,98377.32
2019-03-20T04:22:50.172Z,98368.59
2019-03-20T04:25:26.799Z,98382.67
2019-03-20T04:28:03.206Z,98373.26
2019-03-20T04:30:38.693Z,98366.48
2019-03-20T04:33:13.773Z,98353.16
2019-03-20T04:35:51.114Z,98349.09
2019-03-20T04:38:25.925Z,98344.81
2019-03-20T04:41:01.457Z,98350.03
2019-03-20T04:43:35.638Z,98343.99
2019-03-20T04:46:10.443Z,98344.21
2019-03-20T04:48:45.181Z,98341.42
2019-03-20T04:51:19.656Z,98346.25
2019-03-20T04:53:53.658Z,98340.80
2019-03-20T04:56:27.953Z,98343.28
2019-03-20T04:59:01.933Z,98341.00
2019-03-20T05:01:38.126Z,98346.92
2019-03-20T05:04:12.270Z,98341.09
2019-03-20T05:06:57.746Z,98346.40
2019-03-20T05:09:21.696Z,98356.70
2019-03-20T05:11:58.832Z,98356.70
2019-03-20T05:14:33.157Z,98358.02
2019-03-20T05:17:10.046Z,98359.38
2019-03-20T05:19:44.253Z,98357.98
2019-03-20T05:22:18.170Z,98366.28
2019-03-20T05:24:57.062Z,98367.77
2019-03-20T05:27:29.400Z,98366.59
2019-03-20T05:30:03.656Z,98360.05
2019-03-20T05:32:37.713Z,98355.81
2019-03-20T05:35:14.130Z,98360.67
2019-03-20T05:37:50.061Z,98359.69
2019-03-20T05:40:26.857Z,98355.95
2019-03-20T05:43:02.090Z,98362.34
2019-03-20T05:45:36.097Z,98356.52
2019-03-20T05:48:11.448Z,98352.48
2019-03-20T05:50:45.445Z,98361.92
2019-03-20T05:53:19.696Z,98357.58
2019-03-20T05:55:53.750Z,98358.28
2019-03-20T05:58:47.388Z,98361.02
2019-03-20T06:01:21.469Z,98358.39
2019-03-20T06:03:55.648Z,98363.11
2019-03-20T06:06:29.968Z,98360.52
2019-03-20T06:09:04.404Z,98368.85
2019-03-20T06:11:38.030Z,98369.22
2019-03-20T06:14:16.917Z,98375.88
2019-03-20T06:16:52.621Z,98380.82
2019-03-20T06:19:26.988Z,98379.68
2019-03-20T06:22:02.936Z,98378.91
2019-03-20T06:24:38.360Z,98379.19
2019-03-20T06:27:14.922Z,98380.11
2019-03-20T06:29:49.979Z,98377.92
2019-03-20T06:32:31.501Z,98377.68
2019-03-20T06:35:09.838Z,98374.13
2019-03-20T06:37:44.020Z,98381.73
2019-03-20T06:40:20.259Z,98379.83
2019-03-20T06:42:55.438Z,98377.83
2019-03-20T06:45:29.271Z,98366.98
2019-03-20T06:48:07.958Z,98369.92
2019-03-20T06:50:42.030Z,98377.61
2019-03-20T06:53:16.050Z,98367.64
2019-03-20T06:55:52.795Z,98370.56
2019-03-20T06:58:27.929Z,98370.81
2019-03-20T07:01:13.492Z,98369.16
2019-03-20T07:04:04.671Z,98360.88
2019-03-20T07:06:50.851Z,98358.20
2019-03-20T07:09:30.222Z,98350.62
2019-03-20T07:12:03.989Z,98331.63
2019-03-20T07:14:38.204Z,98331.37
2019-03-20T07:17:12.349Z,98335.56
2019-03-20T07:19:47.709Z,98335.72
2019-03-20T07:22:21.690Z,98330.84
2019-03-20T07:24:55.603Z,98334.78
2019-03-20T07:27:29.214Z,98317.59
2019-03-20T07:30:04.456Z,98321.25
2019-03-20T07:32:39.502Z,98311.08
2019-03-20T07:35:13.608Z,98306.24
2019-03-20T07:37:55.669Z,98297.23
2019-03-20T07:40:22.969Z,98298.27
2019-03-20T07:43:07.900Z,98296.69
2019-03-20T07:45:32.682Z,98295.09
2019-03-20T07:48:06.661Z,98293.43
2019-03-20T07:50:42.460Z,98289.14
2019-03-20T07:53:19.566Z,98294.83
2019-03-20T07:55:53.933Z,98281.33
2019-03-20T07:58:29.143Z,98281.03
2019-03-20T08:01:03.243Z,98287.30
2019-03-20T08:03:38.808Z,98277.83
2019-03-20T08:06:13.011Z,98290.80
2019-03-20T08:08:46.970Z,98290.80
2019-03-20T08:11:20.846Z,98295.15
2019-03-20T08:13:55.060Z,98270.78
2019-03-20T08:16:30.796Z,98284.86
2019-03-20T08:19:05.234Z,98300.02
2019-03-20T08:21:39.661Z,98326.52
2019-03-20T08:24:14.317Z,98324.34
2019-03-20T08:26:48.578Z,98320.02
2019-03-20T08:29:22.822Z,98324.59
2019-03-20T08:31:56.970Z,98327.36
2019-03-20T08:34:31.112Z,98328.16
2019-03-20T08:37:05.080Z,98327.02
2019-03-20T08:39:39.628Z,98327.31
2019-03-20T08:42:14.698Z,98329.49
2019-03-20T08:44:49.256Z,98333.02
2019-03-20T08:47:23.907Z,98315.34
2019-03-20T08:49:58.606Z,98315.14
2019-03-20T08:52:34.239Z,98314.03
2019-03-20T08:55:15.454Z,98314.77
2019-03-20T08:57:51.562Z,98303.73
2019-03-20T09:00:27.085Z,98306.70
2019-03-20T09:03:04.710Z,98305.92
2019-03-20T09:05:40.269Z,98314.01
2019-03-20T09:08:28.545Z,98319.84
2019-03-20T09:10:53.416Z,98323.36
2019-03-20T09:13:28.304Z,98322.28
2019-03-20T09:16:02.789Z,98318.30
2019-03-20T09:18:37.895Z,98317.91
2019-03-20T09:21:13.270Z,98311.29
2019-03-20T09:23:47.668Z,98318.34
2019-03-20T09:26:22.433Z,98322.01
2019-03-20T09:28:59.023Z,98326.94
2019-03-20T09:31:33.952Z,98330.64
2019-03-20T09:34:12.320Z,98332.23
2019-03-20T09:36:47.057Z,98332.23
2019-03-20T09:39:22.007Z,98333.17
2019-03-20T09:41:56.032Z,98337.20
2019-03-20T09:44:30.822Z,98337.99
2019-03-20T09:47:05.377Z,98339.06
2019-03-20T09:49:47.125Z,98345.69
2019-03-20T09:52:21.179Z,98333.22
2019-03-20T09:54:55.498Z,98335.31
2019-03-20T09:57:29.572Z,98335.95
2019-03-20T10:00:04.000Z,98344.34
2019-03-20T10:02:38.445Z,98346.27
2019-03-20T10:05:14.236Z,98357.33
2019-03-20T10:07:48.550Z,98356.33
2019-03-20T10:10:26.341Z,98362.20
2019-03-20T10:13:01.026Z,98357.01
2019-03-20T10:15:37.069Z,98362.70
2019-03-20T10:18:11.377Z,98367.12
2019-03-20T10:20:46.084Z,98374.48
2019-03-20T10:23:19.693Z,98383.55
2019-03-20T10:25:53.870Z,98387.23
2019-03-20T10:28:28.173Z,98383.12
2019-03-20T10:31:04.073Z,98395.16
2019-03-20T10:33:38.264Z,98388.83
2019-03-20T10:36:17.692Z,98398.84
2019-03-20T10:38:53.489Z,98396.36
2019-03-20T10:41:27.517Z,98398.24
2019-03-20T10:44:01.747Z,98406.27
2019-03-20T10:46:55.071Z,98397.23
2019-03-20T10:49:29.390Z,98391.27
2019-03-20T10:52:03.650Z,98400.48
2019-03-20T10:54:37.593Z,98398.88
2019-03-20T10:57:30.888Z,98392.34
2019-03-20T11:00:05.586Z,98398.74
2019-03-20T11:02:39.923Z,98407.75
2019-03-20T11:05:14.940Z,98412.99
2019-03-20T11:07:49.043Z,98423.59
2019-03-20T11:10:33.318Z,98434.31
2019-03-20T11:13:07.575Z,98437.51
2019-03-20T11:15:41.493Z,98423.63
2019-03-20T11:18:15.698Z,98415.16
2019-03-20T11:20:53.741Z,98408.87
2019-03-20T11:23:27.536Z,98405.80
2019-03-20T11:26:02.107Z,98403.21
2019-03-20T11:28:36.432Z,98396.50
2019-03-20T11:31:10.892Z,98404.56
2019-03-20T11:33:47.344Z,98405.95
2019-03-20T11:36:22.883Z,98399.98
2019-03-20T11:38:57.370Z,98400.52
2019-03-20T11:41:32.329Z,98397.63
2019-03-20T11:44:07.952Z,98404.58
2019-03-20T11:46:44.203Z,98404.78
2019-03-20T11:49:18.934Z,98403.14
2019-03-20T11:51:53.462Z,98407.05
2019-03-20T11:54:27.777Z,98408.33
2019-03-20T11:57:03.025Z,98399.19
2019-03-20T11:59:40.208Z,98403.44
2019-03-20T12:02:14.904Z,98402.97
2019-03-20T12:04:49.395Z,98394.09
2019-03-20T12:07:23.997Z,98385.98
2019-03-20T12:09:59.155Z,98390.73
2019-03-20T12:12:34.038Z,98393.66
2019-03-20T12:15:10.668Z,98389.26
2019-03-20T12:17:45.089Z,98390.28
2019-03-20T12:20:25.682Z,98389.88
2019-03-20T12:23:00.745Z,98388.32
2019-03-20T12:25:39.444Z,98382.06
2019-03-20T12:28:14.063Z,98379.00
2019-03-20T12:30:49.315Z,98380.21
2019-03-20T12:33:24.759Z,98378.68
2019-03-20T12:35:59.640Z,98376.17
2019-03-20T12:38:34.530Z,98378.51
2019-03-20T12:41:10.955Z,98372.97
2019-03-20T12:43:47.259Z,98364.34
2019-03-20T12:46:22.759Z,98362.30
2019-03-20T12:48:59.695Z,98355.27
2019-03-20T12:51:34.030Z,98357.58
2019-03-20T12:54:11.634Z,98364.69
2019-03-20T12:56:46.629Z,98364.80
2019-03-20T12:59:21.648Z,98354.33
2019-03-20T13:01:57.201Z,98348.16
2019-03-20T13:04:34.915Z,98349.30
2019-03-20T13:07:09.953Z,98350.31
2019-03-20T13:09:45.165Z,98351.84
2019-03-20T13:12:20.142Z,98342.03
2019-03-20T13:14:57.366Z,98335.25
2019-03-20T13:17:34.390Z,98326.44
2019-03-20T13:20:11.670Z,98327.14
2019-03-20T13:22:47.299Z,98325.49
2019-03-20T13:25:25.048Z,98317.09
2019-03-20T13:28:02.674Z,98320.11
2019-03-20T13:30:45.343Z,98316.30
2019-03-20T13:33:25.799Z,98306.30
2019-03-20T13:35:58.505Z,98309.23
2019-03-20T13:38:35.251Z,98304.58
2019-03-20T13:41:12.586Z,98298.77
2019-03-20T13:43:53.318Z,98295.45
2019-03-20T13:46:28.967Z,98290.39
2019-03-20T13:49:05.654Z,98284.42
2019-03-20T13:51:39.954Z,98281.41
2019-03-20T13:54:15.727Z,98274.44
2019-03-20T13:56:50.556Z,98274.09
2019-03-20T13:59:24.958Z,98264.09
2019-03-20T14:01:59.548Z,98259.61
2019-03-20T14:04:36.217Z,98252.55
2019-03-20T14:07:10.787Z,98245.58
2019-03-20T14:09:45.522Z,98229.20
2019-03-20T14:12:19.536Z,98225.26
2019-03-20T14:14:53.848Z,98224.13
2019-03-20T14:17:27.786Z,98232.87
2019-03-20T14:20:05.752Z,98232.76
2019-03-20T14:22:39.917Z,98232.87
2019-03-20T14:25:17.899Z,98220.95
2019-03-20T14:27:53.462Z,98225.00
2019-03-20T14:30:36.586Z,98212.78
2019-03-20T14:33:10.592Z,98217.17
2019-03-20T14:35:44.903Z,98208.63
2019-03-20T14:38:18.625Z,98210.28
2019-03-20T14:41:21.157Z,98204.73
2019-03-20T14:43:47.263Z,98204.32
2019-03-20T14:46:22.717Z,98199.45
2019-03-20T14:48:56.796Z,98199.38
2019-03-20T14:51:31.954Z,98198.73
2019-03-20T14:54:08.448Z,98196.44
2019-03-20T14:56:40.951Z,98200.86
2019-03-20T14:59:14.950Z,98192.04
2019-03-20T15:01:48.658Z,98199.17
2019-03-20T15:04:22.373Z,98197.34
2019-03-20T15:06:58.207Z,98192.30
2019-03-20T15:09:32.726Z,98187.71
2019-03-20T15:12:06.568Z,98188.66
2019-03-20T15:14:40.373Z,98181.96
2019-03-20T15:17:32.684Z,98180.04
2019-03-20T15:20:08.329Z,98177.44
2019-03-20T15:22:42.042Z,98179.93
2019-03-20T15:25:16.794Z,98169.88
2019-03-20T15:27:50.791Z,98168.30
2019-03-20T15:30:30.214Z,98168.14
2019-03-20T15:33:06.007Z,98163.41
2019-03-20T15:35:42.959Z,98159.81
2019-03-20T15:38:17.270Z,98163.86
2019-03-20T15:40:56.223Z,98164.91
2019-03-20T15:43:25.884Z,98158.09
2019-03-20T15:46:00.924Z,98161.78
2019-03-20T15:48:34.538Z,98161.52
2019-03-20T15:51:08.871Z,98163.72
2019-03-20T15:53:43.088Z,98159.02
2019-03-20T15:56:18.982Z,98147.73
2019-03-20T15:58:54.286Z,98152.09
2019-03-20T16:01:47.388Z,98152.23
2019-03-20T16:04:22.442Z,98149.83
2019-03-20T16:06:55.947Z,98154.36
2019-03-20T16:09:30.260Z,98152.28
2019-03-20T16:12:26.940Z,98148.63
2019-03-20T16:14:59.881Z,98139.17
2019-03-20T16:17:33.516Z,98145.06
2019-03-20T16:20:09.430Z,98143.63
2019-03-20T16:22:43.131Z,98142.69
2019-03-20T16:25:25.993Z,98134.16
2019-03-20T16:27:59.915Z,98142.56
2019-03-20T16:30:34.577Z,98131.87
2019-03-20T16:33:08.477Z,98130.61
2019-03-20T16:35:42.463Z,98131.20
2019-03-20T16:38:16.439Z,98127.09
2019-03-20T16:40:53.075Z,98127.49
2019-03-20T16:43:26.091Z,98128.25
2019-03-20T16:45:59.861Z,98121.00
2019-03-20T16:48:33.986Z,98129.26
2019-03-20T16:51:07.558Z,98127.11
2019-03-20T16:53:41.090Z,98123.95
2019-03-20T16:56:14.714Z,98127.51
2019-03-20T16:58:52.082Z,98118.57
2019-03-20T17:01:25.322Z,98113.27
2019-03-20T17:03:59.447Z,98114.38
2019-03-20T17:06:33.330Z,98107.47
2019-03-20T17:09:08.745Z,98105.31
2019-03-20T17:11:42.287Z,98100.78
2019-03-20T17:14:16.040Z,98094.87
2019-03-20T17:16:49.746Z,98097.45
2019-03-20T17:19:23.078Z,98094.83
2019-03-20T17:21:56.321Z,98101.28
2019-03-20T17:24:30.377Z,98102.76
2019-03-20T17:27:04.047Z,98097.03
2019-03-20T17:29:37.630Z,98096.81
2019-03-20T17:32:11.249Z,98097.44
2019-03-20T17:34:44.969Z,98093.70
2019-03-20T17:37:18.473Z,98087.47
2019-03-20T17:39:53.701Z,98088.20
2019-03-20T17:42:27.555Z,98082.72
2019-03-20T17:45:01.353Z,98076.66
2019-03-20T17:47:34.988Z,98075.43
2019-03-20T17:50:11.556Z,98075.21
2019-03-20T17:52:45.581Z,98067.95
2019-03-20T17:55:19.118Z,98063.58
2019-03-20T17:57:52.650Z,98060.66
2019-03-20T18:00:33.731Z,98047.35
2019-03-20T18:03:07.661Z,98045.32
2019-03-20T18:05:42.934Z,98049.06
2019-03-20T18:08:17.105Z,98047.64
2019-03-20T18:10:51.130Z,98039.47
2019-03-20T18:13:24.456Z,98033.64
2019-03-20T18:15:58.548Z,98034.75
2019-03-20T18:18:33.168Z,98034.63
2019-03-20T18:21:06.840Z,98036.96
2019-03-20T18:23:40.562Z,98032.48
2019-03-20T18:26:17.339Z,98028.50
2019-03-20T18:28:54.135Z,98024.86
2019-03-20T18:31:28.913Z,98016.95
2019-03-20T18:34:03.895Z,98014.55
2019-03-20T18:36:37.760Z,98013.88
2019-03-20T18:39:11.587Z,98007.89
2019-03-20T18:41:45.208Z,98009.49
2019-03-20T18:44:18.768Z,98006.20
2019-03-20T18:46:52.459Z,97997.58
2019-03-20T18:49:26.174Z,97990.64
2019-03-20T18:51:59.668Z,97996.06
2019-03-20T18:54:33.551Z,97994.03
2019-03-20T18:57:07.440Z,97999.22
2019-03-20T18:59:41.178Z,97994.08
2019-03-20T19:02:15.019Z,97993.85
2019-03-20T19:04:48.511Z,97987.25
2019-03-20T19:07:22.220Z,97993.09
2019-03-20T19:09:57.662Z,97998.29
2019-03-20T19:12:34.992Z,97991.80
2019-03-20T19:15:15.736Z,97984.55
2019-03-20T19:17:49.269Z,97994.13
2019-03-20T19:20:24.645Z,97988.28
2019-03-20T19:22:58.450Z,97975.86
2019-03-20T19:25:32.038Z,97982.73
2019-03-20T19:28:05.860Z,97974.52
2019-03-20T19:30:39.879Z,97976.22
2019-03-20T19:33:13.638Z,97980.98
2019-03-20T19:35:47.459Z,97978.98
2019-03-20T19:38:21.267Z,97975.56
2019-03-20T19:40:54.883Z,97978.89
2019-03-20T19:43:28.367Z,97972.48
2019-03-20T19:46:02.290Z,97973.11
2019-03-20T19:48:36.077Z,97978.25
2019-03-20T19:51:09.830Z,97976.38
2019-03-20T19:53:43.385Z,97965.34
2019-03-20T19:56:16.963Z,97982.38
2019-03-20T19:58:50.643Z,97971.27
2019-03-20T20:01:24.211Z,97980.06
2019-03-20T20:03:57.779Z,97977.17
2019-03-20T20:06:31.524Z,97973.13
2019-03-20T20:09:06.123Z,97977.92
2019-03-20T20:11:40.751Z,97968.55
2019-03-20T20:14:14.695Z,97980.58
2019-03-20T20:16:49.812Z,97981.77
2019-03-20T20:19:23.960Z,97979.61
2019-03-20T20:21:57.698Z,97982.91
2019-03-20T20:24:31.284Z,97982.98
2019-03-20T20:27:05.212Z,97982.14
2019-03-20T20:29:38.785Z,97975.97
2019-03-20T20:32:12.336Z,97980.98
2019-03-20T20:34:45.963Z,97982.06
2019-03-20T20:37:19.452Z,97995.16
2019-03-20T20:39:53.255Z,97994.66
2019-03-20T20:42:26.876Z,97991.40
2019-03-20T20:45:00.370Z,97990.73
2019-03-20T20:47:34.054Z,97982.17
2019-03-20T20:50:09.671Z,97992.51
2019-03-20T20:52:43.316Z,97996.82
2019-03-20T20:55:24.562Z,98008.05
2019-03-20T20:57:58.271Z,98004.66
2019-03-20T21:00:35.117Z,98014.56
2019-03-20T21:03:08.616Z,98012.21
2019-03-20T21:05:42.278Z,98013.08
2019-03-20T21:08:15.892Z,98010.73
2019-03-20T21:10:49.573Z,98005.27
2019-03-20T21:13:25.174Z,98004.23
2019-03-20T21:15:59.430Z,98016.41
2019-03-20T21:18:44.806Z,98004.30
2019-03-20T21:21:18.337Z,97994.21
2019-03-20T21:24:25.999Z,98001.88
2019-03-20T21:27:29.589Z,98000.48
2019-03-20T21:30:33.823Z,97997.09
2019-03-20T21:33:10.211Z,98000.83
2019-03-20T21:36:19.868Z,98019.91
2019-03-20T21:38:53.830Z,98020.84
2019-03-20T21:41:32.971Z,98009.44
2019-03-20T21:44:24.343Z,98010.95
2019-03-20T21:47:24.785Z,98014.92
2019-03-20T21:49:58.599Z,98006.77
2019-03-20T21:52:32.119Z,98009.00
2019-03-20T21:55:23.234Z,98013.64
2019-03-20T21:58:10.788Z,98017.77
2019-03-20T22:01:36.773Z,98012.41
2019-03-20T22:04:10.183Z,98018.97
2019-03-20T22:07:11.460Z,98008.50
2019-03-20T22:09:57.138Z,98008.09
2019-03-20T22:13:24.398Z,98010.72
2019-03-20T22:16:23.361Z,98019.33
2019-03-20T22:19:25.576Z,98017.11
2019-03-20T22:22:19.968Z,98022.72
2019-03-20T22:25:12.024Z,98025.75
2019-03-20T22:28:23.795Z,98035.42
2019-03-20T22:30:58.186Z,98035.97
2019-03-20T22:34:21.570Z,98040.58
2019-03-20T22:36:56.311Z,98043.94
2019-03-20T22:40:00.340Z,98043.23
2019-03-20T22:42:48.237Z,98047.63
2019-03-20T22:45:57.911Z,98055.80
2019-03-20T22:48:42.758Z,98056.41
2019-03-20T22:51:30.496Z,98058.59
2019-03-20T22:54:30.946Z,98068.09
2019-03-20T22:57:26.698Z,98065.87
2019-03-20T23:00:00.438Z,98073.44
2019-03-20T23:02:43.087Z,98079.70
2019-03-20T23:05:16.983Z,98079.45
2019-03-20T23:07:55.901Z,98077.28
2019-03-20T23:10:30.513Z,98079.75
2019-03-20T23:13:06.552Z,98082.42
2019-03-20T23:15:40.460Z,98087.87
2019-03-20T23:18:16.445Z,98095.84
2019-03-20T23:20:50.163Z,98101.66
2019-03-20T23:23:25.709Z,98103.09
2019-03-20T23:25:59.686Z,98113.84
2019-03-20T23:28:33.707Z,98124.67
2019-03-20T23:31:08.908Z,98125.77
2019-03-20T23:33:42.802Z,98137.77
2019-03-20T23:36:16.695Z,98134.58
2019-03-20T23:38:50.759Z,98133.22
2019-03-20T23:41:24.793Z,98138.73
2019-03-20T23:43:58.596Z,98137.92
2019-03-20T23:46:32.783Z,98156.05
2019-03-20T23:49:18.457Z,98159.66
2019-03-20T23:51:52.305Z,98152.81
2019-03-20T23:54:29.117Z,98155.14
2019-03-20T23:57:02.974Z,98151.89
2019-03-20T23:59:37.399Z,98143.96
